Topsail Beach, North Carolina
Current Conditions -  °F | °C
As of 12:56 AM on Tuesday 27 Jan 2015 (Local Time) from KNCA Reporting Station
Overcast Overcast  
Wind Chill:   Ceiling: 1600
Heat Index:   Visibility: 10mi
Dew Point:   Wind: 12mph
Humidity: 83%   Direction: 320°NW
Pressure: 29.64"   Gusts: NA
Location:  34.4895°N, 77.514°W
Report Text: KNCA 270556Z AUTO 32010KT 10SM OVC016 08/05 A2964 RMK AO2 SLP038 60000 T00780050 10100 20078 53004
Loading
Personal Weather Stations






























Interactive Weather Map New forecast layout! Learn more

10-Day Weather Forecast

Advertisements
Track Severe Weather on mobile